sensor_id;sensor_type;location;lat;lon;timestamp;P1;durP1;ratioP1;P2;durP2;ratioP2
9388;SDS011;4734;52.778;6.798;2023-10-08T00:00:28;3.78;;;0.90;;
9388;SDS011;4734;52.778;6.798;2023-10-08T00:03:29;1.20;;;0.60;;
9388;SDS011;4734;52.778;6.798;2023-10-08T00:06:16;1.98;;;1.00;;
9388;SDS011;4734;52.778;6.798;2023-10-08T00:09:03;0.80;;;0.80;;
9388;SDS011;4734;52.778;6.798;2023-10-08T00:11:51;2.45;;;0.75;;
9388;SDS011;4734;52.778;6.798;2023-10-08T00:14:37;0.63;;;0.50;;
9388;SDS011;4734;52.778;6.798;2023-10-08T00:17:29;0.90;;;0.90;;
9388;SDS011;4734;52.778;6.798;2023-10-08T00:20:15;1.00;;;1.00;;
9388;SDS011;4734;52.778;6.798;2023-10-08T00:23:09;1.60;;;1.10;;
9388;SDS011;4734;52.778;6.798;2023-10-08T00:25:55;1.15;;;1.05;;
9388;SDS011;4734;52.778;6.798;2023-10-08T00:28:42;1.00;;;1.00;;
9388;SDS011;4734;52.778;6.798;2023-10-08T00:31:27;1.27;;;1.17;;
9388;SDS011;4734;52.778;6.798;2023-10-08T00:34:17;1.17;;;1.10;;
9388;SDS011;4734;52.778;6.798;2023-10-08T00:37:03;1.73;;;1.08;;
9388;SDS011;4734;52.778;6.798;2023-10-08T00:39:52;1.42;;;1.00;;
9388;SDS011;4734;52.778;6.798;2023-10-08T00:42:40;1.42;;;1.40;;
9388;SDS011;4734;52.778;6.798;2023-10-08T00:45:30;0.95;;;0.95;;
9388;SDS011;4734;52.778;6.798;2023-10-08T00:48:15;1.10;;;1.10;;
9388;SDS011;4734;52.778;6.798;2023-10-08T00:51:02;1.38;;;1.27;;
9388;SDS011;4734;52.778;6.798;2023-10-08T00:54:00;1.50;;;1.45;;
9388;SDS011;4734;52.778;6.798;2023-10-08T00:56:52;3.35;;;1.10;;
9388;SDS011;4734;52.778;6.798;2023-10-08T00:59:41;1.20;;;1.20;;
9388;SDS011;4734;52.778;6.798;2023-10-08T01:02:29;1.52;;;1.42;;
9388;SDS011;4734;52.778;6.798;2023-10-08T01:05:28;2.15;;;1.30;;
9388;SDS011;4734;52.778;6.798;2023-10-08T01:08:27;1.60;;;1.23;;
9388;SDS011;4734;52.778;6.798;2023-10-08T01:11:20;1.52;;;1.42;;
9388;SDS011;4734;52.778;6.798;2023-10-08T01:14:15;2.28;;;1.50;;
9388;SDS011;4734;52.778;6.798;2023-10-08T01:17:04;1.30;;;1.30;;
9388;SDS011;4734;52.778;6.798;2023-10-08T01:19:51;1.58;;;1.23;;
9388;SDS011;4734;52.778;6.798;2023-10-08T01:22:50;1.38;;;1.25;;
9388;SDS011;4734;52.778;6.798;2023-10-08T01:25:36;1.20;;;1.20;;
9388;SDS011;4734;52.778;6.798;2023-10-08T01:28:23;2.90;;;1.30;;
9388;SDS011;4734;52.778;6.798;2023-10-08T01:31:12;1.75;;;1.35;;
9388;SDS011;4734;52.778;6.798;2023-10-08T01:33:59;1.42;;;1.33;;
9388;SDS011;4734;52.778;6.798;2023-10-08T01:36:47;2.22;;;1.23;;
9388;SDS011;4734;52.778;6.798;2023-10-08T01:39:34;1.30;;;1.20;;
9388;SDS011;4734;52.778;6.798;2023-10-08T01:42:21;1.50;;;1.40;;
9388;SDS011;4734;52.778;6.798;2023-10-08T01:45:08;1.38;;;1.30;;
9388;SDS011;4734;52.778;6.798;2023-10-08T01:47:59;1.25;;;1.15;;
9388;SDS011;4734;52.778;6.798;2023-10-08T01:50:45;1.42;;;1.30;;
9388;SDS011;4734;52.778;6.798;2023-10-08T01:53:31;1.35;;;1.27;;
9388;SDS011;4734;52.778;6.798;2023-10-08T01:56:18;1.00;;;1.00;;
9388;SDS011;4734;52.778;6.798;2023-10-08T01:59:03;1.20;;;1.10;;
9388;SDS011;4734;52.778;6.798;2023-10-08T02:01:49;1.40;;;1.30;;
9388;SDS011;4734;52.778;6.798;2023-10-08T02:04:39;0.90;;;0.90;;
9388;SDS011;4734;52.778;6.798;2023-10-08T02:07:24;1.33;;;1.20;;
9388;SDS011;4734;52.778;6.798;2023-10-08T02:10:10;1.30;;;1.20;;
9388;SDS011;4734;52.778;6.798;2023-10-08T02:12:59;1.25;;;1.10;;
9388;SDS011;4734;52.778;6.798;2023-10-08T02:15:46;1.10;;;1.10;;
9388;SDS011;4734;52.778;6.798;2023-10-08T02:18:35;0.98;;;0.98;;
9388;SDS011;4734;52.778;6.798;2023-10-08T02:21:20;0.90;;;0.90;;
9388;SDS011;4734;52.778;6.798;2023-10-08T02:24:06;1.00;;;1.00;;
9388;SDS011;4734;52.778;6.798;2023-10-08T02:26:54;2.78;;;1.02;;
9388;SDS011;4734;52.778;6.798;2023-10-08T02:29:42;1.63;;;1.10;;
9388;SDS011;4734;52.778;6.798;2023-10-08T02:32:28;1.17;;;1.10;;
9388;SDS011;4734;52.778;6.798;2023-10-08T02:35:13;1.00;;;1.00;;
9388;SDS011;4734;52.778;6.798;2023-10-08T02:37:59;3.22;;;1.10;;
9388;SDS011;4734;52.778;6.798;2023-10-08T02:40:44;1.13;;;1.13;;
9388;SDS011;4734;52.778;6.798;2023-10-08T02:43:31;1.45;;;1.30;;
9388;SDS011;4734;52.778;6.798;2023-10-08T02:46:19;1.10;;;1.10;;
9388;SDS011;4734;52.778;6.798;2023-10-08T02:49:05;1.50;;;1.30;;
9388;SDS011;4734;52.778;6.798;2023-10-08T02:51:54;1.08;;;1.08;;
9388;SDS011;4734;52.778;6.798;2023-10-08T02:54:42;1.10;;;1.10;;
9388;SDS011;4734;52.778;6.798;2023-10-08T02:57:28;1.50;;;1.10;;
9388;SDS011;4734;52.778;6.798;2023-10-08T03:00:15;1.25;;;1.15;;
9388;SDS011;4734;52.778;6.798;2023-10-08T03:03:05;1.35;;;1.10;;
9388;SDS011;4734;52.778;6.798;2023-10-08T03:05:59;1.20;;;1.17;;
9388;SDS011;4734;52.778;6.798;2023-10-08T03:08:46;1.20;;;1.20;;
9388;SDS011;4734;52.778;6.798;2023-10-08T03:11:32;1.00;;;1.00;;
9388;SDS011;4734;52.778;6.798;2023-10-08T03:14:19;1.25;;;1.20;;
9388;SDS011;4734;52.778;6.798;2023-10-08T03:17:06;0.90;;;0.90;;
9388;SDS011;4734;52.778;6.798;2023-10-08T03:19:53;2.15;;;1.20;;
9388;SDS011;4734;52.778;6.798;2023-10-08T03:22:45;1.50;;;1.02;;
9388;SDS011;4734;52.778;6.798;2023-10-08T03:25:30;1.33;;;0.82;;
9388;SDS011;4734;52.778;6.798;2023-10-08T03:28:25;0.90;;;0.90;;
9388;SDS011;4734;52.778;6.798;2023-10-08T03:31:11;1.00;;;1.00;;
9388;SDS011;4734;52.778;6.798;2023-10-08T03:34:00;1.63;;;1.00;;
9388;SDS011;4734;52.778;6.798;2023-10-08T03:36:47;0.95;;;0.90;;
9388;SDS011;4734;52.778;6.798;2023-10-08T03:39:34;1.40;;;1.30;;
9388;SDS011;4734;52.778;6.798;2023-10-08T03:42:33;1.35;;;1.30;;
9388;SDS011;4734;52.778;6.798;2023-10-08T03:45:23;1.70;;;1.60;;
9388;SDS011;4734;52.778;6.798;2023-10-08T03:48:26;2.25;;;1.33;;
9388;SDS011;4734;52.778;6.798;2023-10-08T03:51:19;1.65;;;1.30;;
9388;SDS011;4734;52.778;6.798;2023-10-08T03:54:07;1.65;;;1.40;;
9388;SDS011;4734;52.778;6.798;2023-10-08T03:57:00;2.28;;;1.40;;
9388;SDS011;4734;52.778;6.798;2023-10-08T03:59:48;1.23;;;1.23;;
9388;SDS011;4734;52.778;6.798;2023-10-08T04:02:38;1.55;;;1.45;;
9388;SDS011;4734;52.778;6.798;2023-10-08T04:05:25;1.50;;;1.40;;
9388;SDS011;4734;52.778;6.798;2023-10-08T04:08:11;1.60;;;1.50;;
9388;SDS011;4734;52.778;6.798;2023-10-08T04:11:09;1.60;;;1.50;;
9388;SDS011;4734;52.778;6.798;2023-10-08T04:14:12;1.83;;;1.45;;
9388;SDS011;4734;52.778;6.798;2023-10-08T04:17:00;1.50;;;1.40;;
9388;SDS011;4734;52.778;6.798;2023-10-08T04:19:45;1.63;;;1.52;;
9388;SDS011;4734;52.778;6.798;2023-10-08T04:22:31;1.45;;;1.35;;
9388;SDS011;4734;52.778;6.798;2023-10-08T04:25:17;1.20;;;1.10;;
9388;SDS011;4734;52.778;6.798;2023-10-08T04:28:04;1.33;;;1.30;;
9388;SDS011;4734;52.778;6.798;2023-10-08T04:30:49;1.98;;;1.30;;
9388;SDS011;4734;52.778;6.798;2023-10-08T04:33:35;1.50;;;1.40;;
9388;SDS011;4734;52.778;6.798;2023-10-08T04:36:22;1.75;;;1.42;;
9388;SDS011;4734;52.778;6.798;2023-10-08T04:39:07;1.42;;;1.15;;
9388;SDS011;4734;52.778;6.798;2023-10-08T04:41:58;1.33;;;1.27;;
9388;SDS011;4734;52.778;6.798;2023-10-08T04:44:52;1.38;;;1.17;;
9388;SDS011;4734;52.778;6.798;2023-10-08T04:47:38;2.33;;;1.38;;
9388;SDS011;4734;52.778;6.798;2023-10-08T04:50:25;2.20;;;1.20;;
9388;SDS011;4734;52.778;6.798;2023-10-08T04:53:14;1.45;;;1.30;;
9388;SDS011;4734;52.778;6.798;2023-10-08T04:56:00;1.58;;;1.30;;
9388;SDS011;4734;52.778;6.798;2023-10-08T04:58:49;3.17;;;1.33;;
9388;SDS011;4734;52.778;6.798;2023-10-08T05:01:37;2.22;;;1.10;;
9388;SDS011;4734;52.778;6.798;2023-10-08T05:04:30;1.88;;;0.95;;
9388;SDS011;4734;52.778;6.798;2023-10-08T05:07:29;2.83;;;1.33;;
9388;SDS011;4734;52.778;6.798;2023-10-08T05:10:40;2.13;;;1.10;;
9388;SDS011;4734;52.778;6.798;2023-10-08T05:13:43;1.40;;;1.10;;
9388;SDS011;4734;52.778;6.798;2023-10-08T05:16:50;2.47;;;1.13;;
9388;SDS011;4734;52.778;6.798;2023-10-08T05:19:44;1.60;;;0.95;;
9388;SDS011;4734;52.778;6.798;2023-10-08T05:22:53;2.05;;;0.98;;
9388;SDS011;4734;52.778;6.798;2023-10-08T05:25:49;1.00;;;0.98;;
9388;SDS011;4734;52.778;6.798;2023-10-08T05:28:41;1.50;;;1.08;;
9388;SDS011;4734;52.778;6.798;2023-10-08T05:31:44;4.47;;;1.00;;
9388;SDS011;4734;52.778;6.798;2023-10-08T05:34:32;2.50;;;0.98;;
9388;SDS011;4734;52.778;6.798;2023-10-08T05:37:26;1.30;;;1.17;;
9388;SDS011;4734;52.778;6.798;2023-10-08T05:40:21;3.60;;;1.17;;
9388;SDS011;4734;52.778;6.798;2023-10-08T05:43:27;1.80;;;1.10;;
9388;SDS011;4734;52.778;6.798;2023-10-08T05:46:32;3.50;;;1.20;;
9388;SDS011;4734;52.778;6.798;2023-10-08T05:49:32;2.25;;;1.00;;
9388;SDS011;4734;52.778;6.798;2023-10-08T05:52:26;4.97;;;1.10;;
9388;SDS011;4734;52.778;6.798;2023-10-08T05:55:25;4.80;;;1.17;;
9388;SDS011;4734;52.778;6.798;2023-10-08T05:58:17;2.17;;;1.33;;
9388;SDS011;4734;52.778;6.798;2023-10-08T06:01:08;3.13;;;1.20;;
9388;SDS011;4734;52.778;6.798;2023-10-08T06:04:09;1.65;;;0.98;;
9388;SDS011;4734;52.778;6.798;2023-10-08T06:07:27;1.10;;;1.05;;
9388;SDS011;4734;52.778;6.798;2023-10-08T06:10:31;1.67;;;0.88;;
9388;SDS011;4734;52.778;6.798;2023-10-08T06:13:27;2.13;;;1.25;;
9388;SDS011;4734;52.778;6.798;2023-10-08T06:16:28;2.78;;;1.10;;
9388;SDS011;4734;52.778;6.798;2023-10-08T06:19:25;2.75;;;1.10;;
9388;SDS011;4734;52.778;6.798;2023-10-08T06:22:10;2.60;;;1.15;;
9388;SDS011;4734;52.778;6.798;2023-10-08T06:24:56;1.10;;;1.10;;
9388;SDS011;4734;52.778;6.798;2023-10-08T06:28:00;2.67;;;1.23;;
9388;SDS011;4734;52.778;6.798;2023-10-08T06:30:46;2.15;;;1.20;;
9388;SDS011;4734;52.778;6.798;2023-10-08T06:33:32;2.42;;;1.13;;
9388;SDS011;4734;52.778;6.798;2023-10-08T06:36:18;1.90;;;0.95;;
9388;SDS011;4734;52.778;6.798;2023-10-08T06:39:07;1.13;;;1.00;;
9388;SDS011;4734;52.778;6.798;2023-10-08T06:41:57;1.10;;;0.82;;
9388;SDS011;4734;52.778;6.798;2023-10-08T06:44:43;2.03;;;1.00;;
9388;SDS011;4734;52.778;6.798;2023-10-08T06:47:30;1.35;;;1.10;;
9388;SDS011;4734;52.778;6.798;2023-10-08T06:50:16;2.50;;;1.40;;
9388;SDS011;4734;52.778;6.798;2023-10-08T06:53:04;2.85;;;1.13;;
9388;SDS011;4734;52.778;6.798;2023-10-08T06:55:51;3.25;;;1.15;;
9388;SDS011;4734;52.778;6.798;2023-10-08T06:58:41;3.53;;;1.30;;
9388;SDS011;4734;52.778;6.798;2023-10-08T07:01:30;1.60;;;1.15;;
9388;SDS011;4734;52.778;6.798;2023-10-08T07:04:22;5.15;;;1.20;;
9388;SDS011;4734;52.778;6.798;2023-10-08T07:07:07;2.28;;;1.23;;
9388;SDS011;4734;52.778;6.798;2023-10-08T07:09:53;3.25;;;1.20;;
9388;SDS011;4734;52.778;6.798;2023-10-08T07:12:40;2.95;;;1.30;;
9388;SDS011;4734;52.778;6.798;2023-10-08T07:15:30;5.13;;;1.23;;
9388;SDS011;4734;52.778;6.798;2023-10-08T07:18:16;3.92;;;1.40;;
9388;SDS011;4734;52.778;6.798;2023-10-08T07:21:08;3.35;;;1.30;;
9388;SDS011;4734;52.778;6.798;2023-10-08T07:23:56;1.65;;;1.15;;
9388;SDS011;4734;52.778;6.798;2023-10-08T07:26:43;3.47;;;1.42;;
9388;SDS011;4734;52.778;6.798;2023-10-08T07:29:31;2.85;;;1.27;;
9388;SDS011;4734;52.778;6.798;2023-10-08T07:32:18;3.22;;;1.60;;
9388;SDS011;4734;52.778;6.798;2023-10-08T07:35:05;1.20;;;1.10;;
9388;SDS011;4734;52.778;6.798;2023-10-08T07:38:06;2.42;;;1.27;;
9388;SDS011;4734;52.778;6.798;2023-10-08T07:40:53;2.45;;;1.00;;
9388;SDS011;4734;52.778;6.798;2023-10-08T07:43:40;3.33;;;1.05;;
9388;SDS011;4734;52.778;6.798;2023-10-08T07:46:25;8.00;;;1.40;;
9388;SDS011;4734;52.778;6.798;2023-10-08T07:49:12;3.67;;;1.85;;
9388;SDS011;4734;52.778;6.798;2023-10-08T07:51:58;2.42;;;1.25;;
9388;SDS011;4734;52.778;6.798;2023-10-08T07:54:43;3.50;;;1.40;;
9388;SDS011;4734;52.778;6.798;2023-10-08T07:57:29;1.40;;;1.20;;
9388;SDS011;4734;52.778;6.798;2023-10-08T08:00:15;3.45;;;1.50;;
9388;SDS011;4734;52.778;6.798;2023-10-08T08:03:06;1.67;;;1.30;;
9388;SDS011;4734;52.778;6.798;2023-10-08T08:05:53;3.63;;;1.40;;
9388;SDS011;4734;52.778;6.798;2023-10-08T08:08:39;2.92;;;1.52;;
9388;SDS011;4734;52.778;6.798;2023-10-08T08:11:24;3.33;;;1.10;;
9388;SDS011;4734;52.778;6.798;2023-10-08T08:14:10;6.38;;;1.40;;
9388;SDS011;4734;52.778;6.798;2023-10-08T08:16:55;2.90;;;1.30;;
9388;SDS011;4734;52.778;6.798;2023-10-08T08:19:56;3.95;;;1.48;;
9388;SDS011;4734;52.778;6.798;2023-10-08T08:22:43;4.03;;;1.60;;
9388;SDS011;4734;52.778;6.798;2023-10-08T08:25:37;5.75;;;1.30;;
9388;SDS011;4734;52.778;6.798;2023-10-08T08:28:29;7.50;;;1.40;;
9388;SDS011;4734;52.778;6.798;2023-10-08T08:31:14;3.70;;;1.55;;
9388;SDS011;4734;52.778;6.798;2023-10-08T08:34:03;5.30;;;1.33;;
9388;SDS011;4734;52.778;6.798;2023-10-08T08:36:53;7.00;;;1.52;;
9388;SDS011;4734;52.778;6.798;2023-10-08T08:39:40;2.83;;;1.73;;
9388;SDS011;4734;52.778;6.798;2023-10-08T08:42:26;3.17;;;1.35;;
9388;SDS011;4734;52.778;6.798;2023-10-08T08:45:15;4.40;;;1.33;;
9388;SDS011;4734;52.778;6.798;2023-10-08T08:48:03;2.28;;;1.30;;
9388;SDS011;4734;52.778;6.798;2023-10-08T08:50:50;5.03;;;1.55;;
9388;SDS011;4734;52.778;6.798;2023-10-08T08:53:36;1.65;;;1.10;;
9388;SDS011;4734;52.778;6.798;2023-10-08T08:56:23;5.40;;;1.42;;
9388;SDS011;4734;52.778;6.798;2023-10-08T08:59:08;5.10;;;1.40;;
9388;SDS011;4734;52.778;6.798;2023-10-08T09:01:56;5.97;;;1.50;;
9388;SDS011;4734;52.778;6.798;2023-10-08T09:04:43;5.10;;;1.67;;
9388;SDS011;4734;52.778;6.798;2023-10-08T09:07:29;6.00;;;1.33;;
9388;SDS011;4734;52.778;6.798;2023-10-08T09:10:14;2.97;;;1.30;;
9388;SDS011;4734;52.778;6.798;2023-10-08T09:13:03;3.85;;;1.73;;
9388;SDS011;4734;52.778;6.798;2023-10-08T09:15:51;3.85;;;1.20;;
9388;SDS011;4734;52.778;6.798;2023-10-08T09:18:36;2.90;;;1.30;;
9388;SDS011;4734;52.778;6.798;2023-10-08T09:21:22;4.13;;;1.38;;
9388;SDS011;4734;52.778;6.798;2023-10-08T09:24:08;4.25;;;1.63;;
9388;SDS011;4734;52.778;6.798;2023-10-08T09:26:54;4.50;;;1.70;;
9388;SDS011;4734;52.778;6.798;2023-10-08T09:29:43;5.50;;;1.50;;
9388;SDS011;4734;52.778;6.798;2023-10-08T09:32:31;2.60;;;1.05;;
9388;SDS011;4734;52.778;6.798;2023-10-08T09:35:17;4.07;;;1.60;;
9388;SDS011;4734;52.778;6.798;2023-10-08T09:38:03;4.82;;;1.55;;
9388;SDS011;4734;52.778;6.798;2023-10-08T09:40:52;3.50;;;1.25;;
9388;SDS011;4734;52.778;6.798;2023-10-08T09:43:37;4.65;;;1.50;;
9388;SDS011;4734;52.778;6.798;2023-10-08T09:46:30;3.40;;;1.40;;
9388;SDS011;4734;52.778;6.798;2023-10-08T09:49:18;4.97;;;1.23;;
9388;SDS011;4734;52.778;6.798;2023-10-08T09:52:13;3.25;;;1.70;;
9388;SDS011;4734;52.778;6.798;2023-10-08T09:55:09;4.53;;;1.60;;
9388;SDS011;4734;52.778;6.798;2023-10-08T09:57:55;3.60;;;1.20;;
9388;SDS011;4734;52.778;6.798;2023-10-08T10:00:41;4.80;;;1.65;;
9388;SDS011;4734;52.778;6.798;2023-10-08T10:03:30;8.13;;;2.38;;
9388;SDS011;4734;52.778;6.798;2023-10-08T10:06:18;3.45;;;1.40;;
9388;SDS011;4734;52.778;6.798;2023-10-08T10:09:06;4.15;;;1.70;;
9388;SDS011;4734;52.778;6.798;2023-10-08T10:11:59;4.05;;;1.33;;
9388;SDS011;4734;52.778;6.798;2023-10-08T10:14:46;3.50;;;1.45;;
9388;SDS011;4734;52.778;6.798;2023-10-08T10:17:33;4.57;;;1.73;;
9388;SDS011;4734;52.778;6.798;2023-10-08T10:20:22;6.50;;;1.77;;
9388;SDS011;4734;52.778;6.798;2023-10-08T10:26:25;4.38;;;1.58;;
9388;SDS011;4734;52.778;6.798;2023-10-08T10:29:17;4.03;;;1.38;;
9388;SDS011;4734;52.778;6.798;2023-10-08T10:32:04;3.58;;;1.30;;
9388;SDS011;4734;52.778;6.798;2023-10-08T10:34:50;6.10;;;1.60;;
9388;SDS011;4734;52.778;6.798;2023-10-08T10:37:38;4.88;;;1.55;;
9388;SDS011;4734;52.778;6.798;2023-10-08T10:40:27;3.47;;;1.33;;
9388;SDS011;4734;52.778;6.798;2023-10-08T10:43:24;7.07;;;1.45;;
9388;SDS011;4734;52.778;6.798;2023-10-08T10:46:17;2.53;;;1.40;;
9388;SDS011;4734;52.778;6.798;2023-10-08T10:49:14;4.47;;;1.58;;
9388;SDS011;4734;52.778;6.798;2023-10-08T10:52:05;8.40;;;1.80;;
9388;SDS011;4734;52.778;6.798;2023-10-08T10:54:52;4.40;;;1.65;;
9388;SDS011;4734;52.778;6.798;2023-10-08T10:57:46;3.35;;;1.83;;
9388;SDS011;4734;52.778;6.798;2023-10-08T11:00:41;4.47;;;1.58;;
9388;SDS011;4734;52.778;6.798;2023-10-08T11:03:42;6.22;;;1.70;;
9388;SDS011;4734;52.778;6.798;2023-10-08T11:06:28;6.88;;;1.60;;
9388;SDS011;4734;52.778;6.798;2023-10-08T11:09:21;4.50;;;1.60;;
9388;SDS011;4734;52.778;6.798;2023-10-08T11:12:22;4.40;;;1.35;;
9388;SDS011;4734;52.778;6.798;2023-10-08T11:15:27;5.45;;;1.83;;
9388;SDS011;4734;52.778;6.798;2023-10-08T11:18:22;5.13;;;1.60;;
9388;SDS011;4734;52.778;6.798;2023-10-08T11:21:10;4.32;;;1.33;;
9388;SDS011;4734;52.778;6.798;2023-10-08T11:24:01;4.38;;;1.60;;
9388;SDS011;4734;52.778;6.798;2023-10-08T11:26:58;4.00;;;1.83;;
9388;SDS011;4734;52.778;6.798;2023-10-08T11:30:01;6.20;;;1.90;;
9388;SDS011;4734;52.778;6.798;2023-10-08T11:32:55;7.47;;;1.90;;
9388;SDS011;4734;52.778;6.798;2023-10-08T11:35:54;4.97;;;1.67;;
9388;SDS011;4734;52.778;6.798;2023-10-08T11:38:42;3.72;;;1.48;;
9388;SDS011;4734;52.778;6.798;2023-10-08T11:41:32;5.97;;;1.60;;
9388;SDS011;4734;52.778;6.798;2023-10-08T11:44:33;5.55;;;1.45;;
9388;SDS011;4734;52.778;6.798;2023-10-08T11:47:21;3.75;;;1.73;;
9388;SDS011;4734;52.778;6.798;2023-10-08T11:50:09;4.97;;;1.67;;
9388;SDS011;4734;52.778;6.798;2023-10-08T11:53:01;5.05;;;1.42;;
9388;SDS011;4734;52.778;6.798;2023-10-08T11:55:50;3.85;;;1.35;;
9388;SDS011;4734;52.778;6.798;2023-10-08T11:58:40;4.72;;;1.73;;
9388;SDS011;4734;52.778;6.798;2023-10-08T12:01:28;2.97;;;1.52;;
9388;SDS011;4734;52.778;6.798;2023-10-08T12:04:16;9.05;;;1.85;;
9388;SDS011;4734;52.778;6.798;2023-10-08T12:07:02;6.82;;;1.70;;
9388;SDS011;4734;52.778;6.798;2023-10-08T12:09:52;4.32;;;1.90;;
9388;SDS011;4734;52.778;6.798;2023-10-08T12:12:38;4.35;;;1.67;;
9388;SDS011;4734;52.778;6.798;2023-10-08T12:15:26;3.75;;;1.75;;
9388;SDS011;4734;52.778;6.798;2023-10-08T12:18:22;9.35;;;1.80;;
9388;SDS011;4734;52.778;6.798;2023-10-08T12:21:11;7.57;;;1.80;;
9388;SDS011;4734;52.778;6.798;2023-10-08T12:23:59;4.63;;;1.45;;
9388;SDS011;4734;52.778;6.798;2023-10-08T12:26:50;5.15;;;1.70;;
9388;SDS011;4734;52.778;6.798;2023-10-08T12:29:36;2.30;;;1.52;;
9388;SDS011;4734;52.778;6.798;2023-10-08T12:32:28;4.63;;;1.38;;
9388;SDS011;4734;52.778;6.798;2023-10-08T12:35:17;4.90;;;1.50;;
9388;SDS011;4734;52.778;6.798;2023-10-08T12:38:06;5.03;;;1.52;;
9388;SDS011;4734;52.778;6.798;2023-10-08T12:40:54;6.50;;;1.52;;
9388;SDS011;4734;52.778;6.798;2023-10-08T12:43:41;4.82;;;1.60;;
9388;SDS011;4734;52.778;6.798;2023-10-08T12:46:29;5.35;;;1.70;;
9388;SDS011;4734;52.778;6.798;2023-10-08T12:49:18;4.88;;;1.73;;
9388;SDS011;4734;52.778;6.798;2023-10-08T12:52:06;4.68;;;1.25;;
9388;SDS011;4734;52.778;6.798;2023-10-08T12:54:57;5.18;;;1.58;;
9388;SDS011;4734;52.778;6.798;2023-10-08T12:57:50;4.55;;;1.67;;
9388;SDS011;4734;52.778;6.798;2023-10-08T13:00:49;1.83;;;1.38;;
9388;SDS011;4734;52.778;6.798;2023-10-08T13:03:41;7.13;;;1.90;;
9388;SDS011;4734;52.778;6.798;2023-10-08T13:06:31;3.20;;;1.23;;
9388;SDS011;4734;52.778;6.798;2023-10-08T13:09:18;4.25;;;1.42;;
9388;SDS011;4734;52.778;6.798;2023-10-08T13:12:06;4.68;;;1.38;;
9388;SDS011;4734;52.778;6.798;2023-10-08T13:14:54;3.33;;;1.40;;
9388;SDS011;4734;52.778;6.798;2023-10-08T13:17:40;3.70;;;1.42;;
9388;SDS011;4734;52.778;6.798;2023-10-08T13:20:33;5.13;;;1.70;;
9388;SDS011;4734;52.778;6.798;2023-10-08T13:23:20;5.78;;;1.58;;
9388;SDS011;4734;52.778;6.798;2023-10-08T13:26:13;3.60;;;1.45;;
9388;SDS011;4734;52.778;6.798;2023-10-08T13:29:04;2.95;;;1.30;;
9388;SDS011;4734;52.778;6.798;2023-10-08T13:31:54;3.15;;;1.30;;
9388;SDS011;4734;52.778;6.798;2023-10-08T13:34:41;4.18;;;1.42;;
9388;SDS011;4734;52.778;6.798;2023-10-08T13:37:27;4.82;;;1.48;;
9388;SDS011;4734;52.778;6.798;2023-10-08T13:40:13;3.63;;;1.45;;
9388;SDS011;4734;52.778;6.798;2023-10-08T13:43:03;2.40;;;1.30;;
9388;SDS011;4734;52.778;6.798;2023-10-08T13:45:52;3.47;;;1.30;;
9388;SDS011;4734;52.778;6.798;2023-10-08T13:48:40;3.17;;;1.48;;
9388;SDS011;4734;52.778;6.798;2023-10-08T13:51:31;5.53;;;1.48;;
9388;SDS011;4734;52.778;6.798;2023-10-08T13:54:18;3.38;;;1.33;;
9388;SDS011;4734;52.778;6.798;2023-10-08T13:57:05;4.78;;;1.80;;
9388;SDS011;4734;52.778;6.798;2023-10-08T13:59:53;2.75;;;1.38;;
9388;SDS011;4734;52.778;6.798;2023-10-08T14:02:43;3.53;;;1.30;;
9388;SDS011;4734;52.778;6.798;2023-10-08T14:05:29;4.10;;;1.85;;
9388;SDS011;4734;52.778;6.798;2023-10-08T14:08:18;2.65;;;1.48;;
9388;SDS011;4734;52.778;6.798;2023-10-08T14:11:06;5.05;;;1.60;;
9388;SDS011;4734;52.778;6.798;2023-10-08T14:13:56;4.30;;;1.60;;
9388;SDS011;4734;52.778;6.798;2023-10-08T14:16:52;3.85;;;1.55;;
9388;SDS011;4734;52.778;6.798;2023-10-08T14:19:45;4.43;;;1.40;;
9388;SDS011;4734;52.778;6.798;2023-10-08T14:22:43;7.57;;;1.50;;
9388;SDS011;4734;52.778;6.798;2023-10-08T14:25:31;4.30;;;1.60;;
9388;SDS011;4734;52.778;6.798;2023-10-08T14:28:26;4.70;;;1.77;;
9388;SDS011;4734;52.778;6.798;2023-10-08T14:31:24;2.13;;;1.40;;
9388;SDS011;4734;52.778;6.798;2023-10-08T14:34:11;8.18;;;1.27;;
9388;SDS011;4734;52.778;6.798;2023-10-08T14:37:29;3.63;;;1.42;;
9388;SDS011;4734;52.778;6.798;2023-10-08T14:40:32;2.92;;;1.42;;
9388;SDS011;4734;52.778;6.798;2023-10-08T14:43:37;3.42;;;1.48;;
9388;SDS011;4734;52.778;6.798;2023-10-08T14:46:23;3.03;;;1.50;;
9388;SDS011;4734;52.778;6.798;2023-10-08T14:49:15;4.65;;;1.40;;
9388;SDS011;4734;52.778;6.798;2023-10-08T14:52:02;3.33;;;1.70;;
9388;SDS011;4734;52.778;6.798;2023-10-08T14:54:51;2.05;;;1.20;;
9388;SDS011;4734;52.778;6.798;2023-10-08T14:57:37;4.10;;;1.60;;
9388;SDS011;4734;52.778;6.798;2023-10-08T15:00:23;3.72;;;1.50;;
9388;SDS011;4734;52.778;6.798;2023-10-08T15:03:10;4.18;;;1.58;;
9388;SDS011;4734;52.778;6.798;2023-10-08T15:05:56;4.28;;;1.40;;
9388;SDS011;4734;52.778;6.798;2023-10-08T15:08:47;5.90;;;1.45;;
9388;SDS011;4734;52.778;6.798;2023-10-08T15:11:39;3.70;;;1.63;;
9388;SDS011;4734;52.778;6.798;2023-10-08T15:14:26;4.22;;;1.95;;
9388;SDS011;4734;52.778;6.798;2023-10-08T15:17:12;3.35;;;1.63;;
9388;SDS011;4734;52.778;6.798;2023-10-08T15:19:58;4.88;;;1.75;;
9388;SDS011;4734;52.778;6.798;2023-10-08T15:22:46;6.40;;;1.95;;
9388;SDS011;4734;52.778;6.798;2023-10-08T15:25:33;3.05;;;1.42;;
9388;SDS011;4734;52.778;6.798;2023-10-08T15:28:22;3.72;;;1.60;;
9388;SDS011;4734;52.778;6.798;2023-10-08T15:31:09;3.92;;;1.70;;
9388;SDS011;4734;52.778;6.798;2023-10-08T15:34:00;2.10;;;1.50;;
9388;SDS011;4734;52.778;6.798;2023-10-08T15:36:49;4.35;;;2.05;;
9388;SDS011;4734;52.778;6.798;2023-10-08T15:39:36;4.22;;;1.60;;
9388;SDS011;4734;52.778;6.798;2023-10-08T15:42:24;3.03;;;1.70;;
9388;SDS011;4734;52.778;6.798;2023-10-08T15:45:12;4.13;;;1.40;;
9388;SDS011;4734;52.778;6.798;2023-10-08T15:47:59;4.28;;;1.40;;
9388;SDS011;4734;52.778;6.798;2023-10-08T15:50:49;4.93;;;1.60;;
9388;SDS011;4734;52.778;6.798;2023-10-08T15:53:35;2.80;;;1.90;;
9388;SDS011;4734;52.778;6.798;2023-10-08T15:56:21;2.50;;;1.60;;
9388;SDS011;4734;52.778;6.798;2023-10-08T15:59:08;3.75;;;1.52;;
9388;SDS011;4734;52.778;6.798;2023-10-08T16:01:55;3.88;;;1.40;;
9388;SDS011;4734;52.778;6.798;2023-10-08T16:04:41;4.88;;;1.67;;
9388;SDS011;4734;52.778;6.798;2023-10-08T16:07:27;4.40;;;1.67;;
9388;SDS011;4734;52.778;6.798;2023-10-08T16:10:13;6.13;;;1.48;;
9388;SDS011;4734;52.778;6.798;2023-10-08T16:12:59;4.00;;;1.48;;
9388;SDS011;4734;52.778;6.798;2023-10-08T16:15:49;6.50;;;1.50;;
9388;SDS011;4734;52.778;6.798;2023-10-08T16:18:36;4.32;;;1.40;;
9388;SDS011;4734;52.778;6.798;2023-10-08T16:21:22;3.20;;;1.50;;
9388;SDS011;4734;52.778;6.798;2023-10-08T16:24:08;3.10;;;1.90;;
9388;SDS011;4734;52.778;6.798;2023-10-08T16:26:54;3.40;;;1.65;;
9388;SDS011;4734;52.778;6.798;2023-10-08T16:29:39;3.45;;;1.58;;
9388;SDS011;4734;52.778;6.798;2023-10-08T16:32:25;3.50;;;1.63;;
9388;SDS011;4734;52.778;6.798;2023-10-08T16:35:12;4.85;;;1.60;;
9388;SDS011;4734;52.778;6.798;2023-10-08T16:37:59;2.30;;;1.60;;
9388;SDS011;4734;52.778;6.798;2023-10-08T16:40:44;1.95;;;1.38;;
9388;SDS011;4734;52.778;6.798;2023-10-08T16:43:30;1.60;;;1.48;;
9388;SDS011;4734;52.778;6.798;2023-10-08T16:46:16;2.05;;;1.58;;
9388;SDS011;4734;52.778;6.798;2023-10-08T16:49:02;4.43;;;1.70;;
9388;SDS011;4734;52.778;6.798;2023-10-08T16:51:48;2.50;;;1.55;;
9388;SDS011;4734;52.778;6.798;2023-10-08T16:54:34;3.83;;;1.52;;
9388;SDS011;4734;52.778;6.798;2023-10-08T16:57:20;3.67;;;2.05;;
9388;SDS011;4734;52.778;6.798;2023-10-08T17:00:06;5.10;;;1.90;;
9388;SDS011;4734;52.778;6.798;2023-10-08T17:02:55;3.97;;;2.30;;
9388;SDS011;4734;52.778;6.798;2023-10-08T17:05:41;2.67;;;1.80;;
9388;SDS011;4734;52.778;6.798;2023-10-08T17:08:28;2.08;;;1.60;;
9388;SDS011;4734;52.778;6.798;2023-10-08T17:11:15;3.78;;;2.33;;
9388;SDS011;4734;52.778;6.798;2023-10-08T17:14:02;4.93;;;3.47;;
9388;SDS011;4734;52.778;6.798;2023-10-08T17:16:48;6.95;;;4.15;;
9388;SDS011;4734;52.778;6.798;2023-10-08T17:19:34;3.97;;;2.45;;
9388;SDS011;4734;52.778;6.798;2023-10-08T17:22:19;4.18;;;3.05;;
9388;SDS011;4734;52.778;6.798;2023-10-08T17:25:07;3.92;;;2.35;;
9388;SDS011;4734;52.778;6.798;2023-10-08T17:27:53;2.20;;;1.77;;
9388;SDS011;4734;52.778;6.798;2023-10-08T17:30:39;2.85;;;2.17;;
9388;SDS011;4734;52.778;6.798;2023-10-08T17:33:24;2.92;;;2.50;;
9388;SDS011;4734;52.778;6.798;2023-10-08T17:36:12;5.25;;;2.70;;